Soaring Guidance
Issued by NWS Reno, NV

Home | Current Version | Previous Version | Text Only | Print | Product List | Glossary On
Versions: 1 2 3 4 5 6 7
000
UXUS97 KREV 241349
SRGREV

SOARING FORECAST
NATIONAL WEATHER SERVICE - RENO NV
700 AM PDT FRI MAR 24 2017

THIS SOARING FORECAST IS FOR THE EASTERN SIERRA AND WESTERN NEVADA
WITH SPECIFIC INDICES FOR THE GREATER RENO AREA.

THIS FORECAST IS PREPARED DAILY BY 700 AM AND IS NOT UPDATED.

FOR CURRENT FLIGHT CONDITIONS...FORECASTS...AND ADVISORIES...ACCESS
YOUR LOCAL BRIEFING OUTLET OR FLIGHT SERVICE STATION.

*******************************************************************
FORECASTED LOCAL INDICES FOR RENO:        TODAY     YESTERDAY
FORECASTED MAX TEMP AT RENO (DEG F).....     59          60
FORECASTED TRIGGER TEMPERATURE (DEG F)..     52          41
   EXCEEDED YESTERDAY BY 955 AM PDT
FORECASTED MAXIMUM ALTITUDE (FT MSL)....  11400       17200
FORECASTED SOARING INDEX (FPM)..........    492        1086
FORECASTED K-INDEX.........VALID 18Z....     23           7
FORECASTED K-INDEX.........VALID 00Z....     26           0
FORECASTED LIFTED INDEX....VALID 18Z....      6           6
FORECASTED LIFTED INDEX....VALID 00Z....      5           6

AFTERNOON WINDS ALOFT FORECAST
MSL (FT) WIND/TEMP
9000  2426/-02
10000 2331/-03
12000 2341/-07
14000 2342/-11
16000 2344/-15
18000 2349/-19
24000 2269/-29
30000 2279/-46
34000 2294/-54
39000 2386/-62

SLIDE MOUNTAIN DATA:
     DATE       TIME     TEMP  DEWPT   RH         WIND (MPH)
                        (F)   (F)           | DIR  SPEED GUST
2017-03-24    05:50      19    17     86    | 023   61   75
2017-03-24    05:30      19    17     90    | 048   62   82
2017-03-24    05:20      20    18     90    | 145   59   76
2017-03-24    05:00      20    16     81    | 142   55   70

RENO TAF FORECAST:
KRNO 241120Z 2412/2512 VRB05KT P6SM SCT070 SCT120 SCT200
     FM241600 19012G20KT P6SM SCT060 BKN100 WS020/23040KT
     FM241900 20015G28KT P6SM VCSH SCT050 BKN090 WS020/23045KT
     FM242200 18018G32KT P6SM -SHRA BKN050 OVC080 WS020/25045KT
     FM250200 26011G18KT P6SM VCSH SCT050 BKN100
     FM250700 30011KT P6SM SCT080 BKN140

CARSON CITY TAF FORECAST:
KCXP 241120Z 2412/2512 VRB04KT P6SM SCT050 SCT110 SCT200
     FM241700 20010KT P6SM VCSH SCT050 BKN100 WS020/23040KT
     FM242000 21012G24KT P6SM VCSH SCT040 BKN080 WS020/24045KT
     FM242300 21016G28KT P6SM -SHRA BKN040 OVC070 WS020/25045KT
     FM250300 25010G16KT P6SM VCSH SCT040 BKN090
     FM250800 29011KT P6SM SCT070 BKN120

OUTLOOK FOR THE RENO-CARSON CITY-MINDEN AREA:
.SATURDAY...MOSTLY CLOUDY. SLIGHT CHANCE OF SHOWERS IN THE
MORNING. SNOW LEVEL 5000 TO 5500 FEET. HIGHS 50 TO 55. WEST WINDS
UP TO 10 MPH.

SUNRISE AND SUNSET
MARCH 24 2017.........SUNRISE   656 AM PDT   SUNSET   716 PM PDT
MARCH 25 2017.........SUNRISE   654 AM PDT   SUNSET   717 PM PDT



USA.gov is the U.S. government's official web portal to all federal, state and local government web resources and services.